sensor_id;sensor_type;location;lat;lon;timestamp;P1;durP1;ratioP1;P2;durP2;ratioP2
4700;SDS011;8724;51.272;6.554;2022-12-07T00:01:27;10.57;;;9.30;;
4700;SDS011;8724;51.272;6.554;2022-12-07T00:03:57;7.80;;;7.10;;
4700;SDS011;8724;51.272;6.554;2022-12-07T00:06:31;11.03;;;8.03;;
4700;SDS011;8724;51.272;6.554;2022-12-07T00:09:00;8.53;;;7.70;;
4700;SDS011;8724;51.272;6.554;2022-12-07T00:11:29;9.20;;;8.30;;
4700;SDS011;8724;51.272;6.554;2022-12-07T00:13:59;9.27;;;8.37;;
4700;SDS011;8724;51.272;6.554;2022-12-07T00:16:29;8.57;;;7.73;;
4700;SDS011;8724;51.272;6.554;2022-12-07T00:18:59;10.97;;;8.30;;
4700;SDS011;8724;51.272;6.554;2022-12-07T00:21:28;9.03;;;8.13;;
4700;SDS011;8724;51.272;6.554;2022-12-07T00:23:58;9.67;;;8.77;;
4700;SDS011;8724;51.272;6.554;2022-12-07T00:26:27;10.80;;;9.67;;
4700;SDS011;8724;51.272;6.554;2022-12-07T00:29:01;11.53;;;8.37;;
4700;SDS011;8724;51.272;6.554;2022-12-07T00:31:36;10.23;;;7.77;;
4700;SDS011;8724;51.272;6.554;2022-12-07T00:34:06;9.40;;;8.47;;
4700;SDS011;8724;51.272;6.554;2022-12-07T00:36:35;10.03;;;9.07;;
4700;SDS011;8724;51.272;6.554;2022-12-07T00:39:03;9.57;;;8.40;;
4700;SDS011;8724;51.272;6.554;2022-12-07T00:41:31;9.83;;;8.03;;
4700;SDS011;8724;51.272;6.554;2022-12-07T00:44:00;8.70;;;7.90;;
4700;SDS011;8724;51.272;6.554;2022-12-07T00:46:29;9.70;;;8.53;;
4700;SDS011;8724;51.272;6.554;2022-12-07T00:48:58;9.33;;;8.43;;
4700;SDS011;8724;51.272;6.554;2022-12-07T00:51:26;10.40;;;9.10;;
4700;SDS011;8724;51.272;6.554;2022-12-07T00:53:54;10.07;;;9.07;;
4700;SDS011;8724;51.272;6.554;2022-12-07T00:56:23;11.60;;;9.40;;
4700;SDS011;8724;51.272;6.554;2022-12-07T00:58:52;11.73;;;9.43;;
4700;SDS011;8724;51.272;6.554;2022-12-07T01:01:24;11.40;;;10.20;;
4700;SDS011;8724;51.272;6.554;2022-12-07T01:03:54;11.70;;;10.50;;
4700;SDS011;8724;51.272;6.554;2022-12-07T01:06:22;10.50;;;9.60;;
4700;SDS011;8724;51.272;6.554;2022-12-07T01:08:52;11.73;;;10.07;;
4700;SDS011;8724;51.272;6.554;2022-12-07T01:11:21;13.50;;;11.80;;
4700;SDS011;8724;51.272;6.554;2022-12-07T01:13:51;13.40;;;10.27;;
4700;SDS011;8724;51.272;6.554;2022-12-07T01:16:21;11.77;;;10.57;;
4700;SDS011;8724;51.272;6.554;2022-12-07T01:18:53;11.70;;;9.90;;
4700;SDS011;8724;51.272;6.554;2022-12-07T01:21:23;10.63;;;9.60;;
4700;SDS011;8724;51.272;6.554;2022-12-07T01:23:52;10.60;;;9.53;;
4700;SDS011;8724;51.272;6.554;2022-12-07T01:26:22;10.00;;;9.20;;
4700;SDS011;8724;51.272;6.554;2022-12-07T01:28:51;10.70;;;9.60;;
4700;SDS011;8724;51.272;6.554;2022-12-07T01:31:22;12.10;;;10.23;;
4700;SDS011;8724;51.272;6.554;2022-12-07T01:33:53;11.57;;;10.30;;
4700;SDS011;8724;51.272;6.554;2022-12-07T01:36:23;10.23;;;8.63;;
4700;SDS011;8724;51.272;6.554;2022-12-07T01:38:54;10.87;;;9.27;;
4700;SDS011;8724;51.272;6.554;2022-12-07T01:41:24;10.17;;;9.27;;
4700;SDS011;8724;51.272;6.554;2022-12-07T01:44:13;10.00;;;9.10;;
4700;SDS011;8724;51.272;6.554;2022-12-07T01:46:48;9.37;;;8.50;;
4700;SDS011;8724;51.272;6.554;2022-12-07T01:49:20;10.80;;;9.43;;
4700;SDS011;8724;51.272;6.554;2022-12-07T01:51:52;10.63;;;9.57;;
4700;SDS011;8724;51.272;6.554;2022-12-07T01:54:24;10.00;;;9.00;;
4700;SDS011;8724;51.272;6.554;2022-12-07T01:56:55;9.73;;;8.83;;
4700;SDS011;8724;51.272;6.554;2022-12-07T01:59:25;11.57;;;10.37;;
4700;SDS011;8724;51.272;6.554;2022-12-07T02:01:55;11.00;;;9.60;;
4700;SDS011;8724;51.272;6.554;2022-12-07T02:04:24;15.40;;;10.60;;
4700;SDS011;8724;51.272;6.554;2022-12-07T02:06:52;10.37;;;9.37;;
4700;SDS011;8724;51.272;6.554;2022-12-07T02:09:22;11.30;;;10.10;;
4700;SDS011;8724;51.272;6.554;2022-12-07T02:11:50;10.40;;;9.40;;
4700;SDS011;8724;51.272;6.554;2022-12-07T02:14:19;14.27;;;10.67;;
4700;SDS011;8724;51.272;6.554;2022-12-07T02:16:51;14.60;;;11.17;;
4700;SDS011;8724;51.272;6.554;2022-12-07T02:19:39;10.00;;;9.00;;
4700;SDS011;8724;51.272;6.554;2022-12-07T02:22:33;10.20;;;9.17;;
4700;SDS011;8724;51.272;6.554;2022-12-07T02:25:21;10.67;;;9.67;;
4700;SDS011;8724;51.272;6.554;2022-12-07T02:27:58;9.87;;;8.43;;
4700;SDS011;8724;51.272;6.554;2022-12-07T02:30:34;9.80;;;8.90;;
4700;SDS011;8724;51.272;6.554;2022-12-07T02:33:07;10.43;;;9.50;;
4700;SDS011;8724;51.272;6.554;2022-12-07T02:35:42;9.53;;;8.63;;
4700;SDS011;8724;51.272;6.554;2022-12-07T02:38:16;9.90;;;8.90;;
4700;SDS011;8724;51.272;6.554;2022-12-07T02:40:50;9.60;;;8.60;;
4700;SDS011;8724;51.272;6.554;2022-12-07T02:43:23;10.10;;;9.20;;
4700;SDS011;8724;51.272;6.554;2022-12-07T02:45:55;15.30;;;9.97;;
4700;SDS011;8724;51.272;6.554;2022-12-07T02:48:28;9.77;;;8.80;;
4700;SDS011;8724;51.272;6.554;2022-12-07T02:50:58;10.70;;;9.70;;
4700;SDS011;8724;51.272;6.554;2022-12-07T02:53:33;11.27;;;9.50;;
4700;SDS011;8724;51.272;6.554;2022-12-07T02:56:05;10.30;;;8.50;;
4700;SDS011;8724;51.272;6.554;2022-12-07T02:58:43;15.33;;;9.20;;
4700;SDS011;8724;51.272;6.554;2022-12-07T03:01:26;11.90;;;9.70;;
4700;SDS011;8724;51.272;6.554;2022-12-07T03:03:59;12.20;;;9.40;;
4700;SDS011;8724;51.272;6.554;2022-12-07T03:06:39;11.13;;;9.30;;
4700;SDS011;8724;51.272;6.554;2022-12-07T03:09:17;12.77;;;8.97;;
4700;SDS011;8724;51.272;6.554;2022-12-07T03:11:54;9.50;;;8.57;;
4700;SDS011;8724;51.272;6.554;2022-12-07T03:14:29;9.47;;;8.27;;
4700;SDS011;8724;51.272;6.554;2022-12-07T03:17:02;9.37;;;8.40;;
4700;SDS011;8724;51.272;6.554;2022-12-07T03:19:34;10.00;;;9.00;;
4700;SDS011;8724;51.272;6.554;2022-12-07T03:22:05;9.17;;;8.47;;
4700;SDS011;8724;51.272;6.554;2022-12-07T03:24:39;9.10;;;8.27;;
4700;SDS011;8724;51.272;6.554;2022-12-07T03:27:09;10.00;;;9.00;;
4700;SDS011;8724;51.272;6.554;2022-12-07T03:29:42;11.60;;;8.70;;
4700;SDS011;8724;51.272;6.554;2022-12-07T03:32:17;9.17;;;8.37;;
4700;SDS011;8724;51.272;6.554;2022-12-07T03:34:51;8.70;;;7.90;;
4700;SDS011;8724;51.272;6.554;2022-12-07T03:37:26;9.23;;;8.23;;
4700;SDS011;8724;51.272;6.554;2022-12-07T03:40:02;9.33;;;8.53;;
4700;SDS011;8724;51.272;6.554;2022-12-07T03:42:35;8.30;;;7.60;;
4700;SDS011;8724;51.272;6.554;2022-12-07T03:45:04;10.03;;;8.67;;
4700;SDS011;8724;51.272;6.554;2022-12-07T03:47:37;8.53;;;7.83;;
4700;SDS011;8724;51.272;6.554;2022-12-07T03:50:15;10.43;;;8.53;;
4700;SDS011;8724;51.272;6.554;2022-12-07T03:52:53;8.60;;;7.70;;
4700;SDS011;8724;51.272;6.554;2022-12-07T03:55:25;7.63;;;6.93;;
4700;SDS011;8724;51.272;6.554;2022-12-07T03:57:56;9.07;;;7.50;;
4700;SDS011;8724;51.272;6.554;2022-12-07T04:00:28;11.27;;;7.20;;
4700;SDS011;8724;51.272;6.554;2022-12-07T04:02:58;8.03;;;7.23;;
4700;SDS011;8724;51.272;6.554;2022-12-07T04:05:27;7.83;;;7.07;;
4700;SDS011;8724;51.272;6.554;2022-12-07T04:07:55;8.77;;;7.87;;
4700;SDS011;8724;51.272;6.554;2022-12-07T04:10:23;7.67;;;6.83;;
4700;SDS011;8724;51.272;6.554;2022-12-07T04:12:51;12.17;;;6.77;;
4700;SDS011;8724;51.272;6.554;2022-12-07T04:15:20;9.93;;;6.60;;
4700;SDS011;8724;51.272;6.554;2022-12-07T04:17:48;9.90;;;6.90;;
4700;SDS011;8724;51.272;6.554;2022-12-07T04:20:18;7.53;;;6.83;;
4700;SDS011;8724;51.272;6.554;2022-12-07T04:22:46;6.90;;;6.20;;
4700;SDS011;8724;51.272;6.554;2022-12-07T04:25:14;8.37;;;6.20;;
4700;SDS011;8724;51.272;6.554;2022-12-07T04:27:42;6.93;;;6.30;;
4700;SDS011;8724;51.272;6.554;2022-12-07T04:30:11;7.63;;;6.00;;
4700;SDS011;8724;51.272;6.554;2022-12-07T04:32:39;5.90;;;5.40;;
4700;SDS011;8724;51.272;6.554;2022-12-07T04:35:08;7.23;;;6.17;;
4700;SDS011;8724;51.272;6.554;2022-12-07T04:37:37;10.77;;;6.10;;
4700;SDS011;8724;51.272;6.554;2022-12-07T04:40:07;5.77;;;5.17;;
4700;SDS011;8724;51.272;6.554;2022-12-07T04:42:37;6.07;;;5.47;;
4700;SDS011;8724;51.272;6.554;2022-12-07T04:45:06;22.47;;;18.30;;
4700;SDS011;8724;51.272;6.554;2022-12-07T04:47:35;21.00;;;15.40;;
4700;SDS011;8724;51.272;6.554;2022-12-07T04:50:04;13.17;;;10.23;;
4700;SDS011;8724;51.272;6.554;2022-12-07T04:52:33;25.07;;;17.03;;
4700;SDS011;8724;51.272;6.554;2022-12-07T04:55:02;13.17;;;11.87;;
4700;SDS011;8724;51.272;6.554;2022-12-07T04:57:31;7.23;;;6.53;;
4700;SDS011;8724;51.272;6.554;2022-12-07T04:59:59;7.93;;;6.63;;
4700;SDS011;8724;51.272;6.554;2022-12-07T05:02:28;6.20;;;4.87;;
4700;SDS011;8724;51.272;6.554;2022-12-07T05:04:56;6.43;;;5.37;;
4700;SDS011;8724;51.272;6.554;2022-12-07T05:07:24;11.43;;;5.80;;
4700;SDS011;8724;51.272;6.554;2022-12-07T05:09:53;6.53;;;5.17;;
4700;SDS011;8724;51.272;6.554;2022-12-07T05:35:46;4.60;;;4.20;;
4700;SDS011;8724;51.272;6.554;2022-12-07T05:38:14;10.73;;;5.07;;
4700;SDS011;8724;51.272;6.554;2022-12-07T05:40:42;7.90;;;5.07;;
4700;SDS011;8724;51.272;6.554;2022-12-07T05:43:10;5.93;;;5.03;;
4700;SDS011;8724;51.272;6.554;2022-12-07T05:45:38;6.27;;;5.60;;
4700;SDS011;8724;51.272;6.554;2022-12-07T05:48:07;7.17;;;5.50;;
4700;SDS011;8724;51.272;6.554;2022-12-07T05:50:35;5.27;;;4.77;;
4700;SDS011;8724;51.272;6.554;2022-12-07T05:53:05;6.20;;;5.27;;
4700;SDS011;8724;51.272;6.554;2022-12-07T05:55:33;4.67;;;4.27;;
4700;SDS011;8724;51.272;6.554;2022-12-07T05:58:01;7.20;;;4.33;;
4700;SDS011;8724;51.272;6.554;2022-12-07T06:00:47;5.60;;;5.00;;
4700;SDS011;8724;51.272;6.554;2022-12-07T06:03:17;7.10;;;4.93;;
4700;SDS011;8724;51.272;6.554;2022-12-07T06:05:45;7.57;;;5.00;;
4700;SDS011;8724;51.272;6.554;2022-12-07T06:08:15;5.40;;;4.73;;
4700;SDS011;8724;51.272;6.554;2022-12-07T06:10:43;15.00;;;13.00;;
4700;SDS011;8724;51.272;6.554;2022-12-07T06:13:11;40.00;;;30.33;;
4700;SDS011;8724;51.272;6.554;2022-12-07T06:15:38;19.00;;;13.70;;
4700;SDS011;8724;51.272;6.554;2022-12-07T06:18:06;7.70;;;6.10;;
4700;SDS011;8724;51.272;6.554;2022-12-07T06:20:34;8.90;;;5.53;;
4700;SDS011;8724;51.272;6.554;2022-12-07T06:23:02;5.67;;;5.10;;
4700;SDS011;8724;51.272;6.554;2022-12-07T06:25:32;5.80;;;5.30;;
4700;SDS011;8724;51.272;6.554;2022-12-07T06:28:00;5.37;;;4.70;;
4700;SDS011;8724;51.272;6.554;2022-12-07T06:30:29;6.17;;;4.50;;
4700;SDS011;8724;51.272;6.554;2022-12-07T06:32:57;4.53;;;4.10;;
4700;SDS011;8724;51.272;6.554;2022-12-07T06:35:25;5.63;;;5.00;;
4700;SDS011;8724;51.272;6.554;2022-12-07T06:37:54;4.93;;;4.10;;
4700;SDS011;8724;51.272;6.554;2022-12-07T06:40:22;6.33;;;4.60;;
4700;SDS011;8724;51.272;6.554;2022-12-07T06:42:51;8.07;;;5.43;;
4700;SDS011;8724;51.272;6.554;2022-12-07T06:45:19;6.03;;;4.50;;
4700;SDS011;8724;51.272;6.554;2022-12-07T06:47:48;11.53;;;4.57;;
4700;SDS011;8724;51.272;6.554;2022-12-07T06:50:16;7.37;;;4.70;;
4700;SDS011;8724;51.272;6.554;2022-12-07T06:52:44;6.10;;;4.43;;
4700;SDS011;8724;51.272;6.554;2022-12-07T06:55:13;5.30;;;4.57;;
4700;SDS011;8724;51.272;6.554;2022-12-07T06:57:41;4.30;;;4.00;;
4700;SDS011;8724;51.272;6.554;2022-12-07T07:00:11;7.30;;;4.23;;
4700;SDS011;8724;51.272;6.554;2022-12-07T07:02:47;7.43;;;4.47;;
4700;SDS011;8724;51.272;6.554;2022-12-07T07:05:16;8.73;;;5.00;;
4700;SDS011;8724;51.272;6.554;2022-12-07T07:07:44;28.17;;;18.37;;
4700;SDS011;8724;51.272;6.554;2022-12-07T07:10:32;16.40;;;13.40;;
4700;SDS011;8724;51.272;6.554;2022-12-07T07:13:01;7.27;;;6.00;;
4700;SDS011;8724;51.272;6.554;2022-12-07T07:15:31;6.13;;;4.83;;
4700;SDS011;8724;51.272;6.554;2022-12-07T07:18:00;4.90;;;4.50;;
4700;SDS011;8724;51.272;6.554;2022-12-07T07:20:33;6.10;;;3.90;;
4700;SDS011;8724;51.272;6.554;2022-12-07T07:23:02;6.90;;;4.83;;
4700;SDS011;8724;51.272;6.554;2022-12-07T07:25:30;6.13;;;4.47;;
4700;SDS011;8724;51.272;6.554;2022-12-07T07:27:59;4.87;;;4.03;;
4700;SDS011;8724;51.272;6.554;2022-12-07T07:30:27;7.17;;;4.30;;
4700;SDS011;8724;51.272;6.554;2022-12-07T07:32:57;8.83;;;5.10;;
4700;SDS011;8724;51.272;6.554;2022-12-07T07:35:26;6.10;;;4.30;;
4700;SDS011;8724;51.272;6.554;2022-12-07T07:37:55;5.73;;;3.97;;
4700;SDS011;8724;51.272;6.554;2022-12-07T07:40:24;5.50;;;3.80;;
4700;SDS011;8724;51.272;6.554;2022-12-07T07:42:53;6.57;;;3.70;;
4700;SDS011;8724;51.272;6.554;2022-12-07T07:45:22;7.50;;;4.50;;
4700;SDS011;8724;51.272;6.554;2022-12-07T07:47:52;4.57;;;3.53;;
4700;SDS011;8724;51.272;6.554;2022-12-07T07:50:21;5.70;;;4.23;;
4700;SDS011;8724;51.272;6.554;2022-12-07T07:52:50;5.53;;;3.97;;
4700;SDS011;8724;51.272;6.554;2022-12-07T07:55:19;5.80;;;4.10;;
4700;SDS011;8724;51.272;6.554;2022-12-07T07:57:47;4.13;;;3.77;;
4700;SDS011;8724;51.272;6.554;2022-12-07T08:00:20;4.27;;;3.87;;
4700;SDS011;8724;51.272;6.554;2022-12-07T08:02:49;5.13;;;3.97;;
4700;SDS011;8724;51.272;6.554;2022-12-07T08:05:17;4.30;;;3.90;;
4700;SDS011;8724;51.272;6.554;2022-12-07T08:07:47;5.80;;;4.10;;
4700;SDS011;8724;51.272;6.554;2022-12-07T08:10:16;4.60;;;3.67;;
4700;SDS011;8724;51.272;6.554;2022-12-07T08:12:44;8.23;;;4.40;;
4700;SDS011;8724;51.272;6.554;2022-12-07T08:15:30;4.60;;;3.90;;
4700;SDS011;8724;51.272;6.554;2022-12-07T08:17:59;5.30;;;4.10;;
4700;SDS011;8724;51.272;6.554;2022-12-07T08:20:29;5.90;;;4.00;;
4700;SDS011;8724;51.272;6.554;2022-12-07T08:22:59;4.93;;;4.10;;
4700;SDS011;8724;51.272;6.554;2022-12-07T08:25:27;7.03;;;4.07;;
4700;SDS011;8724;51.272;6.554;2022-12-07T08:27:56;6.13;;;4.50;;
4700;SDS011;8724;51.272;6.554;2022-12-07T08:30:24;9.40;;;5.17;;
4700;SDS011;8724;51.272;6.554;2022-12-07T08:32:52;5.50;;;4.27;;
4700;SDS011;8724;51.272;6.554;2022-12-07T08:35:21;6.27;;;4.60;;
4700;SDS011;8724;51.272;6.554;2022-12-07T08:37:49;7.43;;;4.23;;
4700;SDS011;8724;51.272;6.554;2022-12-07T08:40:19;55.20;;;37.73;;
4700;SDS011;8724;51.272;6.554;2022-12-07T08:42:48;33.47;;;23.60;;
4700;SDS011;8724;51.272;6.554;2022-12-07T08:45:18;15.87;;;10.20;;
4700;SDS011;8724;51.272;6.554;2022-12-07T08:47:53;8.60;;;6.30;;
4700;SDS011;8724;51.272;6.554;2022-12-07T08:50:27;5.83;;;4.60;;
4700;SDS011;8724;51.272;6.554;2022-12-07T08:52:56;9.37;;;5.00;;
4700;SDS011;8724;51.272;6.554;2022-12-07T08:55:27;6.30;;;3.73;;
4700;SDS011;8724;51.272;6.554;2022-12-07T08:57:57;8.33;;;4.90;;
4700;SDS011;8724;51.272;6.554;2022-12-07T09:00:26;4.50;;;4.10;;
4700;SDS011;8724;51.272;6.554;2022-12-07T09:02:54;6.47;;;4.13;;
4700;SDS011;8724;51.272;6.554;2022-12-07T09:05:22;5.93;;;4.47;;
4700;SDS011;8724;51.272;6.554;2022-12-07T09:07:51;4.67;;;4.20;;
4700;SDS011;8724;51.272;6.554;2022-12-07T09:10:23;4.10;;;3.73;;
4700;SDS011;8724;51.272;6.554;2022-12-07T09:12:52;5.53;;;4.97;;
4700;SDS011;8724;51.272;6.554;2022-12-07T09:15:21;7.03;;;4.93;;
4700;SDS011;8724;51.272;6.554;2022-12-07T09:17:49;6.93;;;4.47;;
4700;SDS011;8724;51.272;6.554;2022-12-07T09:20:17;5.27;;;4.63;;
4700;SDS011;8724;51.272;6.554;2022-12-07T09:22:53;5.50;;;5.00;;
4700;SDS011;8724;51.272;6.554;2022-12-07T09:25:21;5.10;;;4.67;;
4700;SDS011;8724;51.272;6.554;2022-12-07T09:27:56;11.70;;;4.90;;
4700;SDS011;8724;51.272;6.554;2022-12-07T09:30:24;7.73;;;4.87;;
4700;SDS011;8724;51.272;6.554;2022-12-07T09:32:54;5.10;;;4.20;;
4700;SDS011;8724;51.272;6.554;2022-12-07T09:35:22;5.80;;;4.10;;
4700;SDS011;8724;51.272;6.554;2022-12-07T09:37:51;3.83;;;3.53;;
4700;SDS011;8724;51.272;6.554;2022-12-07T09:40:20;8.63;;;4.00;;
4700;SDS011;8724;51.272;6.554;2022-12-07T09:42:51;6.63;;;3.67;;
4700;SDS011;8724;51.272;6.554;2022-12-07T09:45:23;5.40;;;4.23;;
4700;SDS011;8724;51.272;6.554;2022-12-07T09:47:54;7.43;;;4.00;;
4700;SDS011;8724;51.272;6.554;2022-12-07T09:50:23;5.77;;;4.10;;
4700;SDS011;8724;51.272;6.554;2022-12-07T09:53:00;5.10;;;4.10;;
4700;SDS011;8724;51.272;6.554;2022-12-07T09:55:36;6.73;;;3.77;;
4700;SDS011;8724;51.272;6.554;2022-12-07T09:58:05;12.00;;;4.13;;
4700;SDS011;8724;51.272;6.554;2022-12-07T10:00:34;5.83;;;4.53;;
4700;SDS011;8724;51.272;6.554;2022-12-07T10:03:02;7.90;;;4.80;;
4700;SDS011;8724;51.272;6.554;2022-12-07T10:05:32;4.83;;;3.93;;
4700;SDS011;8724;51.272;6.554;2022-12-07T10:08:03;13.57;;;8.50;;
4700;SDS011;8724;51.272;6.554;2022-12-07T10:10:33;16.53;;;11.33;;
4700;SDS011;8724;51.272;6.554;2022-12-07T10:13:06;10.43;;;5.90;;
4700;SDS011;8724;51.272;6.554;2022-12-07T10:15:46;8.30;;;5.03;;
4700;SDS011;8724;51.272;6.554;2022-12-07T10:18:21;6.57;;;3.63;;
4700;SDS011;8724;51.272;6.554;2022-12-07T10:21:00;7.17;;;3.90;;
4700;SDS011;8724;51.272;6.554;2022-12-07T10:23:37;6.90;;;4.10;;
4700;SDS011;8724;51.272;6.554;2022-12-07T10:26:19;5.87;;;3.90;;
4700;SDS011;8724;51.272;6.554;2022-12-07T10:28:52;6.37;;;4.00;;
4700;SDS011;8724;51.272;6.554;2022-12-07T10:31:22;7.00;;;4.50;;
4700;SDS011;8724;51.272;6.554;2022-12-07T10:33:51;7.07;;;3.83;;
4700;SDS011;8724;51.272;6.554;2022-12-07T10:36:23;6.33;;;3.83;;
4700;SDS011;8724;51.272;6.554;2022-12-07T10:38:53;7.33;;;4.30;;
4700;SDS011;8724;51.272;6.554;2022-12-07T10:41:27;6.90;;;4.30;;
4700;SDS011;8724;51.272;6.554;2022-12-07T10:43:56;8.87;;;4.67;;
4700;SDS011;8724;51.272;6.554;2022-12-07T10:46:42;4.83;;;3.20;;
4700;SDS011;8724;51.272;6.554;2022-12-07T10:52:55;9.37;;;3.50;;
4700;SDS011;8724;51.272;6.554;2022-12-07T10:55:34;5.80;;;3.93;;
4700;SDS011;8724;51.272;6.554;2022-12-07T10:58:27;6.60;;;3.30;;
4700;SDS011;8724;51.272;6.554;2022-12-07T11:01:06;5.57;;;3.80;;
4700;SDS011;8724;51.272;6.554;2022-12-07T11:03:47;7.40;;;3.53;;
4700;SDS011;8724;51.272;6.554;2022-12-07T11:06:35;8.67;;;3.57;;
4700;SDS011;8724;51.272;6.554;2022-12-07T11:09:20;6.90;;;3.67;;
4700;SDS011;8724;51.272;6.554;2022-12-07T11:12:38;5.00;;;3.40;;
4700;SDS011;8724;51.272;6.554;2022-12-07T11:15:21;5.57;;;3.50;;
4700;SDS011;8724;51.272;6.554;2022-12-07T11:18:01;7.40;;;4.43;;
4700;SDS011;8724;51.272;6.554;2022-12-07T11:20:42;5.43;;;4.13;;
4700;SDS011;8724;51.272;6.554;2022-12-07T11:23:21;4.47;;;3.83;;
4700;SDS011;8724;51.272;6.554;2022-12-07T11:26:03;14.80;;;9.40;;
4700;SDS011;8724;51.272;6.554;2022-12-07T11:28:46;12.83;;;7.93;;
4700;SDS011;8724;51.272;6.554;2022-12-07T11:31:28;10.00;;;6.63;;
4700;SDS011;8724;51.272;6.554;2022-12-07T11:34:04;8.90;;;5.20;;
4700;SDS011;8724;51.272;6.554;2022-12-07T11:36:40;7.90;;;5.83;;
4700;SDS011;8724;51.272;6.554;2022-12-07T11:39:18;11.10;;;5.13;;
4700;SDS011;8724;51.272;6.554;2022-12-07T11:41:55;10.03;;;6.20;;
4700;SDS011;8724;51.272;6.554;2022-12-07T11:44:32;6.73;;;5.10;;
4700;SDS011;8724;51.272;6.554;2022-12-07T11:47:10;7.13;;;5.50;;
4700;SDS011;8724;51.272;6.554;2022-12-07T11:49:47;8.80;;;5.33;;
4700;SDS011;8724;51.272;6.554;2022-12-07T11:52:25;7.10;;;5.33;;
4700;SDS011;8724;51.272;6.554;2022-12-07T11:54:58;10.13;;;5.60;;
4700;SDS011;8724;51.272;6.554;2022-12-07T11:57:31;6.67;;;4.40;;
4700;SDS011;8724;51.272;6.554;2022-12-07T12:00:05;9.47;;;5.70;;
4700;SDS011;8724;51.272;6.554;2022-12-07T12:02:46;10.10;;;5.77;;
4700;SDS011;8724;51.272;6.554;2022-12-07T12:05:21;9.07;;;5.63;;
4700;SDS011;8724;51.272;6.554;2022-12-07T12:07:53;9.30;;;5.83;;
4700;SDS011;8724;51.272;6.554;2022-12-07T12:10:54;6.87;;;4.70;;
4700;SDS011;8724;51.272;6.554;2022-12-07T12:13:45;9.53;;;5.10;;
4700;SDS011;8724;51.272;6.554;2022-12-07T12:17:04;9.23;;;4.50;;
4700;SDS011;8724;51.272;6.554;2022-12-07T12:19:55;10.60;;;5.27;;
4700;SDS011;8724;51.272;6.554;2022-12-07T12:22:30;7.40;;;4.90;;
4700;SDS011;8724;51.272;6.554;2022-12-07T12:25:06;11.00;;;6.63;;
4700;SDS011;8724;51.272;6.554;2022-12-07T12:27:45;9.93;;;5.73;;
4700;SDS011;8724;51.272;6.554;2022-12-07T12:30:26;5.77;;;5.17;;
4700;SDS011;8724;51.272;6.554;2022-12-07T12:33:06;12.10;;;6.30;;
4700;SDS011;8724;51.272;6.554;2022-12-07T12:35:44;5.77;;;4.30;;
4700;SDS011;8724;51.272;6.554;2022-12-07T12:41:01;6.43;;;3.57;;
4700;SDS011;8724;51.272;6.554;2022-12-07T12:43:43;6.90;;;4.03;;
4700;SDS011;8724;51.272;6.554;2022-12-07T12:55:20;6.07;;;4.03;;
4700;SDS011;8724;51.272;6.554;2022-12-07T13:07:09;21.00;;;16.33;;
4700;SDS011;8724;51.272;6.554;2022-12-07T13:09:42;9.47;;;4.80;;
4700;SDS011;8724;51.272;6.554;2022-12-07T13:12:12;5.63;;;2.20;;
4700;SDS011;8724;51.272;6.554;2022-12-07T13:14:53;5.97;;;2.63;;
4700;SDS011;8724;51.272;6.554;2022-12-07T13:23:29;3.80;;;2.13;;
4700;SDS011;8724;51.272;6.554;2022-12-07T13:28:47;4.83;;;2.20;;
4700;SDS011;8724;51.272;6.554;2022-12-07T13:31:31;5.37;;;2.43;;
4700;SDS011;8724;51.272;6.554;2022-12-07T13:34:02;4.33;;;1.90;;
4700;SDS011;8724;51.272;6.554;2022-12-07T13:36:32;3.67;;;2.13;;
4700;SDS011;8724;51.272;6.554;2022-12-07T13:39:19;6.00;;;2.77;;
4700;SDS011;8724;51.272;6.554;2022-12-07T13:41:53;5.70;;;2.00;;
4700;SDS011;8724;51.272;6.554;2022-12-07T13:44:23;5.03;;;2.20;;
4700;SDS011;8724;51.272;6.554;2022-12-07T13:46:59;3.97;;;2.13;;
4700;SDS011;8724;51.272;6.554;2022-12-07T13:53:45;4.83;;;2.20;;
4700;SDS011;8724;51.272;6.554;2022-12-07T13:56:14;5.83;;;2.67;;
4700;SDS011;8724;51.272;6.554;2022-12-07T13:58:43;5.37;;;2.80;;
4700;SDS011;8724;51.272;6.554;2022-12-07T14:01:12;8.40;;;2.57;;
4700;SDS011;8724;51.272;6.554;2022-12-07T14:03:42;3.03;;;1.57;;
4700;SDS011;8724;51.272;6.554;2022-12-07T14:06:23;9.23;;;3.60;;
4700;SDS011;8724;51.272;6.554;2022-12-07T14:09:07;4.97;;;2.67;;
4700;SDS011;8724;51.272;6.554;2022-12-07T14:11:44;4.30;;;2.27;;
4700;SDS011;8724;51.272;6.554;2022-12-07T14:14:14;3.07;;;2.53;;
4700;SDS011;8724;51.272;6.554;2022-12-07T14:16:54;2.90;;;2.00;;
4700;SDS011;8724;51.272;6.554;2022-12-07T14:22:19;3.70;;;2.20;;
4700;SDS011;8724;51.272;6.554;2022-12-07T14:24:50;5.03;;;1.90;;
4700;SDS011;8724;51.272;6.554;2022-12-07T14:27:29;2.70;;;2.27;;
4700;SDS011;8724;51.272;6.554;2022-12-07T14:30:00;2.77;;;1.87;;
4700;SDS011;8724;51.272;6.554;2022-12-07T14:32:29;9.07;;;2.43;;
4700;SDS011;8724;51.272;6.554;2022-12-07T14:35:01;3.90;;;2.63;;
4700;SDS011;8724;51.272;6.554;2022-12-07T14:37:31;4.53;;;2.40;;
4700;SDS011;8724;51.272;6.554;2022-12-07T14:39:59;4.77;;;2.57;;
4700;SDS011;8724;51.272;6.554;2022-12-07T14:42:28;2.40;;;1.80;;
4700;SDS011;8724;51.272;6.554;2022-12-07T14:44:58;2.67;;;2.00;;
4700;SDS011;8724;51.272;6.554;2022-12-07T14:47:28;3.20;;;2.10;;
4700;SDS011;8724;51.272;6.554;2022-12-07T14:50:18;3.13;;;2.03;;
4700;SDS011;8724;51.272;6.554;2022-12-07T14:52:48;4.53;;;2.40;;
4700;SDS011;8724;51.272;6.554;2022-12-07T14:55:39;3.13;;;2.10;;
4700;SDS011;8724;51.272;6.554;2022-12-07T14:58:11;3.67;;;2.60;;
4700;SDS011;8724;51.272;6.554;2022-12-07T15:00:41;3.60;;;2.17;;
4700;SDS011;8724;51.272;6.554;2022-12-07T15:03:10;6.77;;;5.00;;
4700;SDS011;8724;51.272;6.554;2022-12-07T15:05:41;30.57;;;22.10;;
4700;SDS011;8724;51.272;6.554;2022-12-07T15:08:13;26.53;;;17.67;;
4700;SDS011;8724;51.272;6.554;2022-12-07T15:10:45;14.03;;;9.70;;
4700;SDS011;8724;51.272;6.554;2022-12-07T15:13:15;10.53;;;5.20;;
4700;SDS011;8724;51.272;6.554;2022-12-07T15:16:01;3.20;;;2.30;;
4700;SDS011;8724;51.272;6.554;2022-12-07T15:18:30;4.93;;;2.63;;
4700;SDS011;8724;51.272;6.554;2022-12-07T15:20:59;5.30;;;2.33;;
4700;SDS011;8724;51.272;6.554;2022-12-07T15:23:28;7.53;;;3.10;;
4700;SDS011;8724;51.272;6.554;2022-12-07T15:25:57;6.23;;;3.07;;
4700;SDS011;8724;51.272;6.554;2022-12-07T15:28:25;5.50;;;2.80;;
4700;SDS011;8724;51.272;6.554;2022-12-07T15:30:54;3.10;;;2.17;;
4700;SDS011;8724;51.272;6.554;2022-12-07T15:33:22;5.63;;;3.37;;
4700;SDS011;8724;51.272;6.554;2022-12-07T15:35:50;4.60;;;2.30;;
4700;SDS011;8724;51.272;6.554;2022-12-07T15:38:20;5.23;;;2.50;;
4700;SDS011;8724;51.272;6.554;2022-12-07T15:41:09;3.30;;;2.23;;
4700;SDS011;8724;51.272;6.554;2022-12-07T15:43:37;6.43;;;2.50;;
4700;SDS011;8724;51.272;6.554;2022-12-07T15:46:29;4.50;;;2.73;;
4700;SDS011;8724;51.272;6.554;2022-12-07T15:48:58;4.20;;;2.70;;
4700;SDS011;8724;51.272;6.554;2022-12-07T15:51:28;4.40;;;3.00;;
4700;SDS011;8724;51.272;6.554;2022-12-07T15:53:58;4.10;;;2.33;;
4700;SDS011;8724;51.272;6.554;2022-12-07T15:56:26;5.57;;;2.00;;
4700;SDS011;8724;51.272;6.554;2022-12-07T15:58:55;5.33;;;2.40;;
4700;SDS011;8724;51.272;6.554;2022-12-07T16:01:24;2.90;;;2.40;;
4700;SDS011;8724;51.272;6.554;2022-12-07T16:03:52;3.53;;;2.13;;
4700;SDS011;8724;51.272;6.554;2022-12-07T16:06:21;5.47;;;2.20;;
4700;SDS011;8724;51.272;6.554;2022-12-07T16:08:49;4.23;;;2.50;;
4700;SDS011;8724;51.272;6.554;2022-12-07T16:11:19;4.67;;;2.87;;
4700;SDS011;8724;51.272;6.554;2022-12-07T16:13:47;7.73;;;3.40;;
4700;SDS011;8724;51.272;6.554;2022-12-07T16:16:17;5.30;;;2.57;;
4700;SDS011;8724;51.272;6.554;2022-12-07T16:18:46;6.13;;;2.40;;
4700;SDS011;8724;51.272;6.554;2022-12-07T16:21:15;6.27;;;2.60;;
4700;SDS011;8724;51.272;6.554;2022-12-07T16:23:50;6.40;;;3.33;;
4700;SDS011;8724;51.272;6.554;2022-12-07T16:26:21;3.00;;;2.30;;
4700;SDS011;8724;51.272;6.554;2022-12-07T16:28:50;4.83;;;2.90;;
4700;SDS011;8724;51.272;6.554;2022-12-07T16:31:20;3.30;;;2.70;;
4700;SDS011;8724;51.272;6.554;2022-12-07T16:33:52;4.40;;;2.20;;
4700;SDS011;8724;51.272;6.554;2022-12-07T16:36:22;7.33;;;3.40;;
4700;SDS011;8724;51.272;6.554;2022-12-07T16:39:13;3.47;;;2.70;;
4700;SDS011;8724;51.272;6.554;2022-12-07T16:41:44;18.97;;;14.40;;
4700;SDS011;8724;51.272;6.554;2022-12-07T16:44:12;29.50;;;21.30;;
4700;SDS011;8724;51.272;6.554;2022-12-07T16:46:41;14.67;;;7.57;;